createdAt,value
2022-08-24T00:00:30.583Z,40.00
2022-08-24T00:03:57.647Z,40.20
2022-08-24T00:07:27.886Z,40.20
2022-08-24T00:10:53.184Z,40.20
2022-08-24T00:14:16.670Z,40.40
2022-08-24T00:17:41.629Z,40.40
2022-08-24T00:21:06.240Z,40.50
2022-08-24T00:24:29.721Z,40.70
2022-08-24T00:27:54.613Z,40.70
2022-08-24T00:31:19.517Z,41.00
2022-08-24T00:34:45.904Z,41.00
2022-08-24T00:38:22.650Z,41.00
2022-08-24T00:41:53.427Z,41.00
2022-08-24T00:45:20.609Z,41.40
2022-08-24T00:48:52.517Z,41.40
2022-08-24T00:52:20.467Z,42.20
2022-08-24T00:55:50.045Z,41.50
2022-08-24T00:59:22.203Z,41.70
2022-08-24T01:02:55.296Z,41.90
2022-08-24T01:06:19.136Z,42.00
2022-08-24T01:09:42.544Z,42.00
2022-08-24T01:13:11.900Z,42.00
2022-08-24T01:16:53.585Z,42.30
2022-08-24T01:20:19.469Z,42.20
2022-08-24T01:23:48.827Z,42.30
2022-08-24T01:27:14.441Z,42.50
2022-08-24T01:30:39.956Z,42.50
2022-08-24T01:34:05.081Z,42.40
2022-08-24T01:37:32.805Z,42.50
2022-08-24T01:41:02.743Z,42.60
2022-08-24T01:44:30.567Z,42.90
2022-08-24T01:47:54.560Z,42.80
2022-08-24T01:51:18.060Z,42.90
2022-08-24T01:54:43.488Z,42.90
2022-08-24T01:58:08.782Z,43.30
2022-08-24T02:01:38.460Z,43.30
2022-08-24T02:05:03.007Z,43.30
2022-08-24T02:08:26.899Z,43.30
2022-08-24T02:11:50.885Z,43.40
2022-08-24T02:15:15.731Z,43.50
2022-08-24T02:18:41.064Z,43.70
2022-08-24T02:22:07.324Z,43.70
2022-08-24T02:25:33.596Z,44.00
2022-08-24T02:28:57.501Z,44.10
2022-08-24T02:32:24.196Z,44.10
2022-08-24T02:35:48.080Z,44.30
2022-08-24T02:39:11.955Z,44.30
2022-08-24T02:42:35.928Z,44.40
2022-08-24T02:45:59.760Z,44.30
2022-08-24T02:49:24.652Z,44.30
2022-08-24T02:52:48.678Z,44.40
2022-08-24T02:56:12.207Z,44.40
2022-08-24T02:59:36.696Z,44.50
2022-08-24T03:03:00.298Z,44.50
2022-08-24T03:06:25.586Z,44.70
2022-08-24T03:09:49.111Z,44.80
2022-08-24T03:13:12.686Z,44.80
2022-08-24T03:16:37.044Z,44.90
2022-08-24T03:20:01.514Z,45.00
2022-08-24T03:23:27.885Z,45.10
2022-08-24T03:26:58.349Z,45.20
2022-08-24T03:30:24.669Z,45.10
2022-08-24T03:33:48.433Z,45.30
2022-08-24T03:37:12.647Z,45.50
2022-08-24T03:40:37.818Z,45.50
2022-08-24T03:44:01.431Z,45.80
2022-08-24T03:47:26.792Z,45.50
2022-08-24T03:50:50.413Z,45.60
2022-08-24T03:54:15.280Z,45.60
2022-08-24T03:57:40.367Z,45.60
2022-08-24T04:01:05.183Z,45.80
2022-08-24T04:04:30.402Z,45.70
2022-08-24T04:07:54.578Z,45.80
2022-08-24T04:11:23.261Z,45.90
2022-08-24T04:14:48.679Z,45.90
2022-08-24T04:18:15.583Z,46.10
2022-08-24T04:21:39.410Z,46.10
2022-08-24T04:25:09.564Z,46.10
2022-08-24T04:28:34.664Z,46.30
2022-08-24T04:31:59.913Z,46.30
2022-08-24T04:35:23.853Z,46.50
2022-08-24T04:38:49.161Z,46.60
2022-08-24T04:42:32.186Z,46.60
2022-08-24T04:45:57.883Z,46.70
2022-08-24T04:49:22.817Z,46.90
2022-08-24T04:52:47.939Z,47.00
2022-08-24T04:56:17.074Z,47.40
2022-08-24T04:59:43.911Z,47.60
2022-08-24T05:03:08.271Z,47.60
2022-08-24T05:06:34.912Z,48.20
2022-08-24T05:09:58.398Z,49.00
2022-08-24T05:13:22.709Z,49.50
2022-08-24T05:16:52.509Z,49.90
2022-08-24T05:20:17.342Z,49.60
2022-08-24T05:23:43.932Z,49.40
2022-08-24T05:27:09.563Z,49.60
2022-08-24T05:30:42.328Z,49.90
2022-08-24T05:34:06.752Z,50.30
2022-08-24T05:37:30.358Z,50.40
2022-08-24T05:41:08.087Z,50.30
2022-08-24T05:44:32.427Z,50.20
2022-08-24T05:47:58.270Z,49.80
2022-08-24T05:51:42.589Z,49.40
2022-08-24T05:55:09.970Z,48.60
2022-08-24T05:58:35.224Z,47.70
2022-08-24T06:02:00.734Z,47.10
2022-08-24T06:05:24.465Z,46.90
2022-08-24T06:08:51.302Z,46.70
2022-08-24T06:12:14.940Z,46.40
2022-08-24T06:15:50.939Z,46.10
2022-08-24T06:19:24.244Z,45.30
2022-08-24T06:22:49.153Z,44.50
2022-08-24T06:26:32.154Z,43.70
2022-08-24T06:29:59.281Z,43.10
2022-08-24T06:33:43.801Z,42.80
2022-08-24T06:37:07.435Z,42.60
2022-08-24T06:40:31.271Z,42.50
2022-08-24T06:43:55.034Z,42.10
2022-08-24T06:47:23.165Z,42.00
2022-08-24T06:50:56.527Z,41.90
2022-08-24T06:54:20.901Z,41.80
2022-08-24T06:57:47.955Z,42.10
2022-08-24T07:01:18.128Z,41.90
2022-08-24T07:04:43.390Z,41.40
2022-08-24T07:08:27.080Z,41.20
2022-08-24T07:11:50.585Z,40.70
2022-08-24T07:15:16.395Z,40.60
2022-08-24T07:18:44.984Z,40.10
2022-08-24T07:22:11.224Z,39.70
2022-08-24T07:25:37.234Z,39.00
2022-08-24T07:29:06.950Z,38.00
2022-08-24T07:32:42.944Z,37.60
2022-08-24T07:36:07.349Z,37.20
2022-08-24T07:39:32.516Z,36.50
2022-08-24T07:42:59.165Z,36.10
2022-08-24T07:46:23.160Z,35.60
2022-08-24T07:49:50.080Z,35.60
2022-08-24T07:53:16.283Z,35.20
2022-08-24T07:56:43.030Z,34.90
2022-08-24T08:00:13.422Z,34.20
2022-08-24T08:03:43.274Z,33.20
2022-08-24T08:07:07.956Z,32.80
2022-08-24T08:10:35.964Z,31.90
2022-08-24T08:13:59.699Z,31.50
2022-08-24T08:17:25.030Z,31.30
2022-08-24T08:20:50.022Z,31.10
2022-08-24T08:24:16.554Z,31.10
2022-08-24T08:27:48.241Z,30.80
2022-08-24T08:31:13.881Z,30.00
2022-08-24T08:34:39.617Z,29.90
2022-08-24T08:38:05.262Z,29.60
2022-08-24T08:42:05.170Z,29.60
2022-08-24T08:46:02.831Z,28.90
2022-08-24T08:50:08.613Z,28.50
2022-08-24T08:54:24.514Z,28.10
2022-08-24T08:58:04.885Z,28.00
2022-08-24T09:01:50.703Z,28.00
2022-08-24T09:06:07.060Z,27.40
2022-08-24T09:10:04.472Z,27.70
2022-08-24T09:13:53.286Z,27.10
2022-08-24T09:17:50.602Z,26.90
2022-08-24T09:21:46.243Z,26.80
2022-08-24T09:25:28.327Z,26.30
2022-08-24T09:29:13.495Z,26.30
2022-08-24T09:32:56.770Z,26.20
2022-08-24T09:36:34.719Z,26.20
2022-08-24T09:40:18.154Z,26.00
2022-08-24T09:44:21.064Z,25.90
2022-08-24T09:48:28.123Z,25.40
2022-08-24T09:52:31.626Z,25.30
2022-08-24T09:56:13.828Z,25.10
2022-08-24T10:00:12.979Z,24.70
2022-08-24T10:03:57.535Z,24.80
2022-08-24T10:07:32.645Z,24.80
2022-08-24T10:11:12.362Z,24.70
2022-08-24T10:14:52.652Z,24.80
2022-08-24T10:18:39.175Z,24.70
2022-08-24T10:22:18.973Z,24.60
2022-08-24T10:25:55.259Z,24.70
2022-08-24T10:29:43.030Z,24.60
2022-08-24T10:33:20.579Z,24.50
2022-08-24T10:37:18.179Z,24.80
2022-08-24T10:41:00.710Z,24.30
2022-08-24T10:45:02.004Z,24.30
2022-08-24T10:49:20.586Z,24.00
2022-08-24T10:53:15.702Z,23.90
2022-08-24T10:56:53.226Z,23.80
2022-08-24T11:00:22.914Z,23.80
2022-08-24T11:04:03.060Z,24.00
2022-08-24T11:07:28.793Z,23.60
2022-08-24T11:11:10.616Z,23.80
2022-08-24T11:14:40.146Z,23.90
2022-08-24T11:18:05.861Z,24.20
2022-08-24T11:21:45.217Z,24.20
2022-08-24T11:25:19.990Z,23.70
2022-08-24T11:28:51.665Z,24.00
2022-08-24T11:32:33.301Z,24.00
2022-08-24T11:35:57.534Z,23.80
2022-08-24T11:39:26.415Z,23.90
2022-08-24T11:43:10.126Z,23.40
2022-08-24T11:46:40.946Z,23.10
2022-08-24T11:50:24.075Z,23.30
2022-08-24T11:54:04.077Z,23.10
2022-08-24T11:57:47.568Z,22.60
2022-08-24T12:01:21.511Z,22.50
2022-08-24T12:04:56.246Z,22.40
2022-08-24T12:08:32.765Z,22.30
2022-08-24T12:12:08.666Z,22.50
2022-08-24T12:15:51.789Z,22.70
2022-08-24T12:19:22.686Z,23.00
2022-08-24T12:22:46.854Z,22.90
2022-08-24T12:26:23.327Z,22.90
2022-08-24T12:29:53.303Z,22.80
2022-08-24T12:33:18.983Z,22.70
2022-08-24T12:36:57.219Z,22.70
2022-08-24T12:40:33.084Z,22.70
2022-08-24T12:44:07.970Z,22.40
2022-08-24T12:47:42.855Z,22.50
2022-08-24T12:51:22.423Z,22.70
2022-08-24T12:55:12.665Z,22.80
2022-08-24T12:59:07.130Z,22.80
2022-08-24T13:02:38.709Z,22.60
2022-08-24T13:06:18.544Z,22.50
2022-08-24T13:09:48.278Z,22.60
2022-08-24T13:13:41.435Z,22.60
2022-08-24T13:17:14.509Z,22.60
2022-08-24T13:20:57.180Z,22.70
2022-08-24T13:24:45.874Z,22.80
2022-08-24T13:28:28.613Z,23.00
2022-08-24T13:31:59.597Z,23.00
2022-08-24T13:36:02.710Z,23.00
2022-08-24T13:40:08.611Z,23.10
2022-08-24T13:43:43.443Z,23.00
2022-08-24T13:47:17.800Z,23.30
2022-08-24T13:51:07.710Z,23.60
2022-08-24T13:54:44.307Z,23.80
2022-08-24T13:58:23.046Z,24.00
2022-08-24T14:02:08.550Z,24.10
2022-08-24T14:05:40.155Z,24.20
2022-08-24T14:09:35.904Z,24.30
2022-08-24T14:13:16.788Z,24.40
2022-08-24T14:17:19.675Z,24.20
2022-08-24T14:21:09.125Z,24.20
2022-08-24T14:24:46.055Z,24.40
2022-08-24T14:28:37.558Z,24.40
2022-08-24T14:32:45.761Z,24.70
2022-08-24T14:36:21.950Z,25.10
2022-08-24T14:39:56.209Z,25.10
2022-08-24T14:43:31.454Z,25.20
2022-08-24T14:47:08.049Z,25.50
2022-08-24T14:50:47.310Z,26.10
2022-08-24T14:54:26.568Z,26.30
2022-08-24T14:58:08.776Z,26.30
2022-08-24T15:01:45.272Z,26.70
2022-08-24T15:05:23.245Z,27.10
2022-08-24T15:08:47.572Z,27.00
2022-08-24T15:12:44.828Z,27.00
2022-08-24T15:16:16.457Z,27.50
2022-08-24T15:19:54.355Z,27.50
2022-08-24T15:23:35.242Z,28.30
2022-08-24T15:27:11.050Z,27.80
2022-08-24T15:30:39.927Z,28.00
2022-08-24T15:34:06.238Z,28.30
2022-08-24T15:37:33.454Z,28.50
2022-08-24T15:41:08.464Z,28.50
2022-08-24T15:44:33.490Z,29.00
2022-08-24T15:48:00.571Z,28.90
2022-08-24T15:51:44.748Z,30.10
2022-08-24T15:55:27.238Z,29.50
2022-08-24T15:58:51.759Z,29.40
2022-08-24T16:02:28.937Z,29.50
2022-08-24T16:05:56.327Z,29.90
2022-08-24T16:09:38.640Z,29.90
2022-08-24T16:13:13.101Z,30.20
2022-08-24T16:16:42.426Z,30.10
2022-08-24T16:20:18.235Z,30.10
2022-08-24T16:23:53.504Z,30.20
2022-08-24T16:27:19.039Z,30.20
2022-08-24T16:30:53.780Z,30.40
2022-08-24T16:34:24.898Z,30.90
2022-08-24T16:37:48.846Z,30.70
2022-08-24T16:41:13.212Z,30.80
2022-08-24T16:44:41.693Z,31.10
2022-08-24T16:48:06.111Z,31.20
2022-08-24T16:51:29.858Z,31.10
2022-08-24T16:54:53.349Z,31.20
2022-08-24T16:58:17.269Z,31.30
2022-08-24T17:01:42.266Z,32.00
2022-08-24T17:05:06.661Z,31.60
2022-08-24T17:08:30.354Z,31.70
2022-08-24T17:11:53.859Z,31.80
2022-08-24T17:15:18.186Z,31.80
2022-08-24T17:18:43.696Z,32.00
2022-08-24T17:22:16.373Z,32.20
2022-08-24T17:25:42.424Z,32.30
2022-08-24T17:29:11.093Z,32.30
2022-08-24T17:32:38.941Z,32.60
2022-08-24T17:36:06.674Z,32.60
2022-08-24T17:39:39.242Z,32.80
2022-08-24T17:43:03.153Z,32.90
2022-08-24T17:46:27.215Z,33.00
2022-08-24T17:49:50.875Z,33.10
2022-08-24T17:53:15.774Z,33.90
2022-08-24T17:56:41.080Z,33.40
2022-08-24T18:00:07.081Z,33.40
2022-08-24T18:03:35.434Z,33.50
2022-08-24T18:07:03.231Z,33.70
2022-08-24T18:10:32.194Z,33.90
2022-08-24T18:13:55.986Z,34.10
2022-08-24T18:17:28.063Z,34.20
2022-08-24T18:20:51.876Z,34.40
2022-08-24T18:24:15.544Z,34.50
2022-08-24T18:27:40.833Z,34.50
2022-08-24T18:31:06.891Z,34.80
2022-08-24T18:34:32.455Z,34.80
2022-08-24T18:37:56.039Z,35.10
2022-08-24T18:41:19.971Z,35.10
2022-08-24T18:44:45.270Z,35.20
2022-08-24T18:48:08.893Z,35.50
2022-08-24T18:51:38.468Z,35.40
2022-08-24T18:55:02.861Z,35.80
2022-08-24T18:58:26.810Z,35.80
2022-08-24T19:02:11.570Z,36.10
2022-08-24T19:05:38.964Z,36.30
2022-08-24T19:09:03.240Z,36.30
2022-08-24T19:12:31.426Z,36.40
2022-08-24T19:15:54.942Z,36.60
2022-08-24T19:19:20.167Z,36.70
2022-08-24T19:22:45.460Z,37.20
2022-08-24T19:26:09.137Z,37.10
2022-08-24T19:29:54.425Z,37.30
2022-08-24T19:33:24.310Z,37.30
2022-08-24T19:36:49.163Z,37.70
2022-08-24T19:40:13.833Z,37.70
2022-08-24T19:43:58.701Z,37.80
2022-08-24T19:47:21.604Z,37.90
2022-08-24T19:50:45.631Z,38.00
2022-08-24T19:54:10.973Z,38.10
2022-08-24T19:57:44.281Z,38.40
2022-08-24T20:01:15.312Z,38.90
2022-08-24T20:04:38.928Z,38.70
2022-08-24T20:08:03.882Z,38.60
2022-08-24T20:11:29.414Z,38.70
2022-08-24T20:14:52.911Z,39.00
2022-08-24T20:18:17.226Z,39.10
2022-08-24T20:21:41.254Z,39.20
2022-08-24T20:25:05.840Z,39.30
2022-08-24T20:28:40.560Z,39.40
2022-08-24T20:32:04.655Z,39.80
2022-08-24T20:35:29.712Z,39.50
2022-08-24T20:38:56.564Z,39.70
2022-08-24T20:42:21.473Z,39.70
2022-08-24T20:45:46.570Z,39.80
2022-08-24T20:49:16.924Z,40.10
2022-08-24T20:52:43.112Z,40.00
2022-08-24T20:56:12.541Z,40.00
2022-08-24T20:59:36.273Z,40.30
2022-08-24T21:03:01.341Z,40.30
2022-08-24T21:06:25.004Z,40.70
2022-08-24T21:09:48.478Z,40.50
2022-08-24T21:13:12.027Z,40.60
2022-08-24T21:16:39.880Z,40.70
2022-08-24T21:20:06.002Z,40.80
2022-08-24T21:23:29.744Z,41.00
2022-08-24T21:26:54.243Z,40.90
2022-08-24T21:30:22.388Z,41.00
2022-08-24T21:34:03.368Z,41.10
2022-08-24T21:37:28.306Z,41.20
2022-08-24T21:40:52.230Z,41.20
2022-08-24T21:44:16.855Z,41.30
2022-08-24T21:47:40.999Z,41.40
2022-08-24T21:51:04.854Z,41.40
2022-08-24T21:54:29.738Z,41.40
2022-08-24T21:57:53.486Z,41.60
2022-08-24T22:01:17.202Z,41.60
2022-08-24T22:04:40.754Z,41.60
2022-08-24T22:08:05.267Z,41.70
2022-08-24T22:11:31.290Z,41.80
2022-08-24T22:14:55.519Z,41.90
2022-08-24T22:18:19.050Z,41.90
2022-08-24T22:21:47.963Z,42.00
2022-08-24T22:25:13.055Z,42.20
2022-08-24T22:28:41.359Z,42.30
2022-08-24T22:32:05.511Z,42.50
2022-08-24T22:35:29.036Z,42.50
2022-08-24T22:38:56.411Z,42.50
2022-08-24T22:42:19.846Z,42.70
2022-08-24T22:45:45.136Z,42.80
2022-08-24T22:49:11.793Z,43.00
2022-08-24T22:52:35.389Z,43.00
2022-08-24T22:56:00.266Z,43.00
2022-08-24T22:59:27.713Z,43.10
2022-08-24T23:02:52.897Z,43.40
2022-08-24T23:06:17.417Z,43.50
2022-08-24T23:09:44.160Z,43.40
2022-08-24T23:13:08.008Z,43.50
2022-08-24T23:16:35.261Z,43.50
2022-08-24T23:20:06.086Z,43.70
2022-08-24T23:23:29.525Z,43.80
2022-08-24T23:26:53.705Z,43.90
2022-08-24T23:30:17.186Z,43.90
2022-08-24T23:33:41.302Z,44.00
2022-08-24T23:37:06.522Z,44.10
2022-08-24T23:40:30.246Z,44.30
2022-08-24T23:43:54.670Z,44.20
2022-08-24T23:47:18.166Z,44.30
2022-08-24T23:50:46.603Z,44.30
2022-08-24T23:54:13.465Z,44.80
2022-08-24T23:57:37.047Z,44.80
